Time;durP1;ratioP1;P1;durP2;ratioP2;P2;SDS_P1;SDS_P2;PMS_P1;PMS_P2;Temp;Humidity;BMP_temperature;BMP_pressure;BME280_temperature;BME280_humidity;BME280_pressure;Samples;Min_cycle;Max_cycle;Signal;HPM_P1;HPM_P2
2024/01/17 00:01:50;;;;;;;4.30;1.95;;;0.90;99.90;;;;;;5072845;28;20050;-47
2024/01/17 00:04:16;;;;;;;5.65;2.10;;;0.90;99.90;;;;;;5073432;28;20040;-47
2024/01/17 00:06:41;;;;;;;4.55;1.65;;;0.90;99.90;;;;;;5072317;28;20128;-49
2024/01/17 00:09:09;;;;;;;4.07;1.55;;;0.90;99.90;;;;;;5073479;28;20045;-50
2024/01/17 00:11:34;;;;;;;6.93;1.85;;;0.80;99.90;;;;;;5073875;28;20052;-52
2024/01/17 00:14:00;;;;;;;5.80;2.08;;;0.80;99.90;;;;;;5073292;28;20514;-48
2024/01/17 00:16:26;;;;;;;7.05;1.85;;;0.80;99.90;;;;;;5073216;28;20522;-51
2024/01/17 00:18:54;;;;;;;4.93;1.92;;;0.80;99.90;;;;;;5073196;28;20067;-49
2024/01/17 00:21:20;;;;;;;6.53;1.60;;;0.70;99.90;;;;;;5072948;28;20061;-49
2024/01/17 00:23:46;;;;;;;4.95;1.90;;;0.70;99.90;;;;;;5073377;28;20048;-47
2024/01/17 00:26:12;;;;;;;7.23;2.40;;;0.70;99.90;;;;;;5073377;28;20383;-48
2024/01/17 00:28:37;;;;;;;5.18;2.10;;;0.70;99.90;;;;;;5073212;28;20044;-49
2024/01/17 00:31:03;;;;;;;4.90;2.28;;;0.70;99.90;;;;;;5073364;28;20048;-50
2024/01/17 00:33:29;;;;;;;4.75;2.20;;;0.70;99.90;;;;;;5072993;28;20048;-46
2024/01/17 00:35:54;;;;;;;7.57;1.80;;;0.60;99.90;;;;;;5073171;28;20051;-49
2024/01/17 00:38:20;;;;;;;6.53;2.05;;;0.60;99.90;;;;;;5072068;28;20467;-49
2024/01/17 00:40:46;;;;;;;4.35;1.63;;;0.60;99.90;;;;;;5072363;28;20383;-48
2024/01/17 00:43:11;;;;;;;7.05;2.17;;;0.50;99.90;;;;;;5071914;28;20047;-47
2024/01/17 00:45:37;;;;;;;4.65;1.58;;;0.70;99.90;;;;;;5072346;28;20040;-47
2024/01/17 00:48:03;;;;;;;5.07;2.00;;;0.60;99.90;;;;;;5073030;28;20128;-47
2024/01/17 00:50:28;;;;;;;5.07;1.30;;;0.60;99.90;;;;;;5072960;28;20055;-47
2024/01/17 00:52:54;;;;;;;5.30;2.03;;;0.60;99.90;;;;;;5073099;28;20045;-47
2024/01/17 00:55:20;;;;;;;4.00;1.70;;;0.60;99.90;;;;;;5071869;28;20059;-48
2024/01/17 00:57:46;;;;;;;5.32;1.58;;;0.70;99.90;;;;;;5071918;28;20056;-47
2024/01/17 01:00:12;;;;;;;4.95;1.65;;;0.60;99.90;;;;;;5072925;28;20045;-47
2024/01/17 01:02:37;;;;;;;6.00;1.60;;;0.70;99.90;;;;;;5072867;28;20045;-47
2024/01/17 01:05:03;;;;;;;4.50;1.73;;;0.70;99.90;;;;;;5072759;28;20128;-47
2024/01/17 01:07:29;;;;;;;4.80;1.90;;;0.70;99.90;;;;;;5072631;28;20396;-48
2024/01/17 01:09:55;;;;;;;4.50;1.85;;;0.70;99.90;;;;;;5075384;28;20044;-48
2024/01/17 01:12:21;;;;;;;3.88;1.50;;;0.70;99.90;;;;;;5076468;28;20487;-47
2024/01/17 01:14:46;;;;;;;7.43;2.47;;;0.70;99.90;;;;;;5076659;28;20055;-47
2024/01/17 01:17:12;;;;;;;8.07;2.45;;;0.70;99.90;;;;;;5075399;28;20044;-47
2024/01/17 01:19:38;;;;;;;4.72;1.95;;;0.60;99.90;;;;;;5075807;28;20110;-47
2024/01/17 01:22:04;;;;;;;3.95;1.90;;;0.60;99.90;;;;;;5076778;28;20084;-47
2024/01/17 01:24:30;;;;;;;5.15;2.00;;;0.60;99.90;;;;;;5076330;28;20499;-48
2024/01/17 01:26:55;;;;;;;5.75;1.90;;;0.70;99.90;;;;;;5076505;28;20098;-48
2024/01/17 01:29:21;;;;;;;5.97;2.30;;;0.70;99.90;;;;;;5076216;28;20128;-47
2024/01/17 01:31:47;;;;;;;5.78;2.13;;;0.70;99.90;;;;;;5076187;28;20076;-47
2024/01/17 01:34:13;;;;;;;5.57;2.07;;;0.60;99.90;;;;;;5075864;28;20051;-48
2024/01/17 01:36:39;;;;;;;4.55;2.17;;;0.70;99.90;;;;;;5076128;28;20048;-48
2024/01/17 01:39:05;;;;;;;6.40;2.58;;;0.60;99.90;;;;;;5075979;28;20475;-47
2024/01/17 01:41:31;;;;;;;7.25;3.47;;;0.70;99.90;;;;;;5075421;28;20048;-47
2024/01/17 01:43:57;;;;;;;7.88;2.80;;;0.70;99.90;;;;;;5075939;28;20044;-47
2024/01/17 01:46:30;;;;;;;8.20;2.80;;;0.60;99.90;;;;;;5075877;28;20041;-47
2024/01/17 01:48:57;;;;;;;6.95;2.65;;;0.60;99.90;;;;;;5075545;28;20503;-47
2024/01/17 01:51:24;;;;;;;5.97;2.67;;;0.60;99.90;;;;;;5075885;28;20098;-48
2024/01/17 01:53:52;;;;;;;;;;;0.60;99.90;;;;;;5076224;28;20056;-47
2024/01/17 01:56:21;;;;;;;6.72;3.45;;;0.60;99.90;;;;;;5075676;28;20305;-48
2024/01/17 01:58:48;;;;;;;9.05;3.50;;;0.60;99.90;;;;;;5075506;28;20047;-47
2024/01/17 02:01:16;;;;;;;6.35;2.90;;;0.60;99.90;;;;;;5075573;28;20052;-47
2024/01/17 02:03:43;;;;;;;8.77;3.58;;;0.60;99.90;;;;;;5075232;28;20052;-48
2024/01/17 02:06:12;;;;;;;9.50;3.35;;;0.60;99.90;;;;;;5075544;28;20044;-47
2024/01/17 02:08:37;;;;;;;8.52;3.20;;;0.60;99.90;;;;;;5075528;28;20101;-47
2024/01/17 02:11:03;;;;;;;8.85;3.35;;;0.60;99.90;;;;;;5075328;28;20581;-47
2024/01/17 02:13:29;;;;;;;7.20;3.40;;;0.60;99.90;;;;;;5075228;28;20062;-47
2024/01/17 02:15:55;;;;;;;6.90;3.65;;;0.60;99.90;;;;;;5075189;28;20048;-46
2024/01/17 02:18:21;;;;;;;7.70;3.50;;;0.60;99.90;;;;;;5074943;28;20033;-47
2024/01/17 02:20:47;;;;;;;7.87;3.70;;;0.60;99.90;;;;;;5072759;28;20056;-47
2024/01/17 02:23:27;;;;;;;6.18;3.20;;;0.60;99.90;;;;;;5075498;28;20055;-48
2024/01/17 02:25:55;;;;;;;8.02;3.78;;;0.60;99.90;;;;;;5075019;28;20098;-48
2024/01/17 02:28:21;;;;;;;7.72;3.70;;;0.60;99.90;;;;;;5074968;28;20052;-48
2024/01/17 02:30:47;;;;;;;8.82;3.80;;;0.60;99.90;;;;;;5074749;28;20094;-47
2024/01/17 02:33:13;;;;;;;7.20;3.67;;;0.60;99.90;;;;;;5074962;28;20048;-47
2024/01/17 02:35:39;;;;;;;6.95;3.40;;;0.60;99.90;;;;;;5074920;28;20048;-47
2024/01/17 02:38:05;;;;;;;9.90;4.00;;;0.60;99.90;;;;;;5074703;28;20078;-47
2024/01/17 02:40:31;;;;;;;7.70;4.18;;;0.60;99.90;;;;;;5074014;28;20392;-48
2024/01/17 02:42:57;;;;;;;8.98;5.05;;;0.60;99.90;;;;;;5074699;28;20399;-48
2024/01/17 02:45:22;;;;;;;8.30;4.18;;;0.50;99.90;;;;;;5075135;28;20429;-49
2024/01/17 02:47:48;;;;;;;8.00;3.83;;;0.50;99.90;;;;;;5074855;28;20496;-49
2024/01/17 02:50:17;;;;;;;7.70;4.18;;;0.50;99.90;;;;;;5074801;28;20086;-49
2024/01/17 02:52:46;;;;;;;9.95;4.10;;;0.50;99.90;;;;;;5074652;28;20093;-49
2024/01/17 02:55:13;;;;;;;9.07;4.30;;;0.50;99.90;;;;;;5074631;28;20041;-48
2024/01/17 02:57:39;;;;;;;;;;;0.50;99.90;;;;;;5073746;28;20492;-49
2024/01/17 03:00:06;;;;;;;7.95;4.68;;;0.50;99.90;;;;;;5074105;28;19927;-49
2024/01/17 03:02:32;;;;;;;;;;;0.50;99.90;;;;;;5075018;28;20086;-49
2024/01/17 03:04:58;;;;;;;7.78;4.10;;;0.50;99.90;;;;;;5074347;28;20014;-48
2024/01/17 03:07:23;;;;;;;8.23;4.57;;;0.50;99.90;;;;;;5074466;28;20051;-48
2024/01/17 03:09:49;;;;;;;8.60;4.40;;;0.50;99.90;;;;;;5074013;28;20040;-47
2024/01/17 03:12:15;;;;;;;8.93;4.63;;;0.40;99.90;;;;;;5072739;28;20091;-47
2024/01/17 03:14:41;;;;;;;10.05;4.45;;;0.40;99.90;;;;;;5074183;28;20114;-50
2024/01/17 03:17:08;;;;;;;9.63;4.93;;;0.40;99.90;;;;;;5073222;28;20044;-48
2024/01/17 03:19:34;;;;;;;9.02;4.40;;;0.40;99.90;;;;;;5074183;28;20369;-51
2024/01/17 03:22:01;;;;;;;9.17;4.63;;;0.40;99.90;;;;;;5074140;28;20480;-47
2024/01/17 03:24:27;;;;;;;;;;;0.40;99.90;;;;;;5074509;28;20048;-47
2024/01/17 03:26:52;;;;;;;10.43;5.50;;;0.40;99.90;;;;;;5073975;28;19927;-48
2024/01/17 03:29:18;;;;;;;9.63;4.68;;;0.40;99.90;;;;;;5073963;28;20070;-47
2024/01/17 03:31:44;;;;;;;8.65;4.65;;;0.30;99.90;;;;;;5072752;28;20052;-47
2024/01/17 03:34:10;;;;;;;11.63;4.95;;;0.40;99.90;;;;;;5073898;28;20075;-48
2024/01/17 03:36:35;;;;;;;8.48;4.82;;;0.30;99.90;;;;;;5072632;28;20049;-48
2024/01/17 03:39:01;;;;;;;11.25;5.43;;;0.30;99.90;;;;;;5073662;28;20042;-47
2024/01/17 03:41:27;;;;;;;9.20;5.10;;;0.30;99.90;;;;;;5073791;28;20049;-48
2024/01/17 03:43:53;;;;;;;9.93;5.10;;;0.30;99.90;;;;;;5073797;28;20170;-47
2024/01/17 03:46:19;;;;;;;8.85;4.78;;;0.30;99.90;;;;;;5073518;28;20052;-48
2024/01/17 03:48:44;;;;;;;9.90;5.10;;;0.30;99.90;;;;;;5073748;28;20041;-47
2024/01/17 03:51:10;;;;;;;12.05;5.32;;;0.30;99.90;;;;;;5073645;28;20045;-47
2024/01/17 03:53:35;;;;;;;10.52;5.65;;;0.30;99.90;;;;;;5073596;28;20051;-47
2024/01/17 03:56:01;;;;;;;8.98;4.47;;;0.30;99.90;;;;;;5073557;28;20131;-47
2024/01/17 03:58:27;;;;;;;10.63;5.22;;;0.30;99.90;;;;;;5073973;28;20080;-47
2024/01/17 04:00:52;;;;;;;11.38;5.43;;;0.30;99.90;;;;;;5073610;28;20045;-47
2024/01/17 04:03:18;;;;;;;8.73;4.97;;;0.40;99.90;;;;;;5073493;28;20066;-48
2024/01/17 04:05:44;;;;;;;13.00;5.20;;;0.30;99.90;;;;;;5073527;28;20060;-47
2024/01/17 04:08:10;;;;;;;10.53;5.67;;;0.30;99.90;;;;;;5073414;28;20045;-47
2024/01/17 04:10:36;;;;;;;9.73;4.97;;;0.30;99.90;;;;;;5073381;28;20279;-47
2024/01/17 04:13:02;;;;;;;9.43;4.95;;;0.30;99.90;;;;;;5073721;28;20048;-47
2024/01/17 04:15:28;;;;;;;10.57;5.50;;;0.30;99.90;;;;;;5073509;28;20498;-47
2024/01/17 04:17:54;;;;;;;8.88;4.85;;;0.30;99.90;;;;;;5073407;28;20051;-48
2024/01/17 04:20:20;;;;;;;9.52;5.28;;;0.30;99.90;;;;;;5073335;28;20060;-47
2024/01/17 04:22:46;;;;;;;13.00;6.35;;;0.30;99.90;;;;;;5073250;28;20401;-47
2024/01/17 04:25:12;;;;;;;11.23;5.60;;;0.30;99.90;;;;;;5073212;28;20052;-47
2024/01/17 04:27:38;;;;;;;10.45;5.60;;;0.30;99.90;;;;;;5055484;28;20048;-47
2024/01/17 04:30:05;;;;;;;12.73;5.90;;;0.20;99.90;;;;;;5073384;28;20139;-47
2024/01/17 04:32:34;;;;;;;11.20;6.38;;;0.20;99.90;;;;;;5073216;28;20058;-48
2024/01/17 04:35:00;;;;;;;11.27;6.20;;;0.20;99.90;;;;;;5073164;28;20071;-47
2024/01/17 04:37:26;;;;;;;10.95;6.05;;;0.20;99.90;;;;;;5073144;28;20041;-47
2024/01/17 04:39:52;;;;;;;10.37;5.87;;;0.10;99.90;;;;;;5072898;28;20055;-47
2024/01/17 04:42:17;;;;;;;10.50;6.15;;;0.10;99.90;;;;;;5071957;28;20048;-47
2024/01/17 04:44:45;;;;;;;9.82;5.85;;;0.10;99.90;;;;;;5075309;28;20051;-47
2024/01/17 04:47:12;;;;;;;11.90;6.65;;;0.10;99.90;;;;;;5076898;28;20084;-47
2024/01/17 04:49:38;;;;;;;10.38;6.10;;;0.10;99.90;;;;;;5076856;28;20048;-47
2024/01/17 04:52:04;;;;;;;11.02;6.22;;;0.10;99.90;;;;;;5076875;28;20045;-48
2024/01/17 04:54:30;;;;;;;12.77;6.38;;;0.10;99.90;;;;;;5076730;28;20052;-47
2024/01/17 04:56:57;;;;;;;11.23;6.32;;;0.10;99.90;;;;;;5076181;28;20048;-47
2024/01/17 04:59:23;;;;;;;10.38;6.05;;;0.10;99.90;;;;;;5076647;28;20040;-47
2024/01/17 05:01:48;;;;;;;11.10;5.95;;;0.10;99.90;;;;;;5076615;28;20047;-47
2024/01/17 05:04:14;;;;;;;11.38;6.30;;;0.10;99.90;;;;;;5075474;28;20040;-47
2024/01/17 05:06:40;;;;;;;12.48;6.55;;;0.10;99.90;;;;;;5076378;28;20114;-47
2024/01/17 05:09:08;;;;;;;13.80;6.50;;;0.00;99.90;;;;;;5076374;28;20066;-48
2024/01/17 05:11:34;;;;;;;11.18;6.20;;;0.00;99.90;;;;;;5076531;28;20130;-47
2024/01/17 05:14:00;;;;;;;13.18;7.00;;;0.00;99.90;;;;;;5075529;28;20076;-47
2024/01/17 05:16:26;;;;;;;12.50;6.20;;;0.00;99.90;;;;;;5076495;28;20043;-47
2024/01/17 05:18:51;;;;;;;12.93;6.13;;;0.00;99.90;;;;;;5075548;28;20048;-47
2024/01/17 05:21:17;;;;;;;11.32;6.70;;;0.00;99.90;;;;;;5076134;28;20052;-47
2024/01/17 05:23:43;;;;;;;10.10;5.80;;;-0.10;99.90;;;;;;5076235;28;20114;-51
2024/01/17 05:26:10;;;;;;;11.02;6.13;;;-0.10;99.90;;;;;;5076327;28;20368;-49
2024/01/17 05:28:36;;;;;;;12.55;6.47;;;0.00;99.90;;;;;;5076254;28;20106;-49
2024/01/17 05:31:02;;;;;;;10.52;6.18;;;-0.10;99.90;;;;;;5075420;28;20091;-51
2024/01/17 05:33:27;;;;;;;11.40;6.38;;;-0.10;99.90;;;;;;5076259;28;20118;-48
2024/01/17 05:35:53;;;;;;;12.60;6.60;;;-0.10;99.90;;;;;;5076045;28;20040;-51
2024/01/17 05:38:19;;;;;;;12.00;6.25;;;-0.10;99.90;;;;;;5075874;28;20136;-51
2024/01/17 05:40:44;;;;;;;12.68;7.05;;;-0.10;99.90;;;;;;5076011;28;20083;-49
2024/01/17 05:43:10;;;;;;;11.57;6.47;;;-0.10;99.90;;;;;;5075912;28;20055;-49
2024/01/17 05:45:36;;;;;;;12.77;6.40;;;-0.10;99.90;;;;;;5075955;28;20109;-50
2024/01/17 05:48:02;;;;;;;13.18;6.47;;;0.10;99.90;;;;;;5075828;28;20388;-48
2024/01/17 05:50:28;;;;;;;11.47;6.13;;;-0.10;99.90;;;;;;5074815;28;20056;-47
2024/01/17 05:52:53;;;;;;;11.65;6.10;;;-0.10;99.90;;;;;;5075756;28;20041;-47
2024/01/17 05:55:22;;;;;;;11.43;5.93;;;-0.10;99.90;;;;;;5075534;28;20510;-50
2024/01/17 05:57:50;;;;;;;11.20;6.40;;;-0.10;99.90;;;;;;5075710;28;20042;-50
2024/01/17 06:00:18;;;;;;;9.73;5.47;;;-0.10;99.90;;;;;;5091283;28;20084;-50
2024/01/17 06:02:44;;;;;;;10.80;6.30;;;-0.10;99.90;;;;;;5074463;28;20048;-47
2024/01/17 06:05:11;;;;;;;13.18;6.18;;;-0.10;99.90;;;;;;5075541;28;20368;-47
2024/01/17 06:07:39;;;;;;;13.57;6.10;;;-0.10;99.90;;;;;;5075307;28;20403;-48
2024/01/17 06:10:05;;;;;;;9.05;5.30;;;-0.10;99.90;;;;;;5074497;28;20102;-47
2024/01/17 06:12:31;;;;;;;12.18;6.22;;;-0.10;99.90;;;;;;5075419;28;20040;-47
2024/01/17 06:14:57;;;;;;;13.25;6.03;;;-0.20;99.90;;;;;;5075454;28;20495;-48
2024/01/17 06:17:23;;;;;;;10.45;6.45;;;-0.10;99.90;;;;;;5074270;28;20040;-47
2024/01/17 06:19:48;;;;;;;14.30;6.35;;;-0.10;99.90;;;;;;5075020;28;20366;-48
2024/01/17 06:22:18;;;;;;;9.57;5.10;;;-0.20;99.90;;;;;;5074823;28;20052;-48
2024/01/17 06:24:45;;;;;;;12.05;5.95;;;-0.20;99.90;;;;;;5075092;28;20053;-47
2024/01/17 06:27:11;;;;;;;12.10;6.20;;;-0.20;99.90;;;;;;5074279;28;20044;-47
2024/01/17 06:29:41;;;;;;;12.48;5.85;;;-0.20;99.90;;;;;;5074894;28;20472;-47
2024/01/17 06:32:06;;;;;;;11.63;5.95;;;-0.20;99.90;;;;;;5074904;28;20051;-47
2024/01/17 06:34:32;;;;;;;9.85;5.65;;;-0.20;99.90;;;;;;5074805;28;20126;-47
2024/01/17 06:36:58;;;;;;;9.70;5.38;;;-0.20;99.90;;;;;;5074645;28;20055;-47
2024/01/17 06:39:24;;;;;;;9.65;6.03;;;-0.20;99.90;;;;;;5074756;28;20089;-47
2024/01/17 06:41:49;;;;;;;12.00;6.00;;;-0.20;99.90;;;;;;5075109;28;20392;-47
2024/01/17 06:44:15;;;;;;;10.73;5.43;;;-0.20;99.90;;;;;;5074846;28;20480;-48
2024/01/17 06:46:41;;;;;;;10.35;5.70;;;-0.20;99.90;;;;;;5074528;28;20605;-47
2024/01/17 06:49:07;;;;;;;11.57;5.87;;;-0.20;99.90;;;;;;5074714;28;20044;-48
2024/01/17 06:51:33;;;;;;;9.38;5.47;;;-0.20;99.90;;;;;;5073109;28;20287;-48
2024/01/17 06:53:58;;;;;;;11.50;5.77;;;-0.20;99.90;;;;;;5074603;28;20040;-49
2024/01/17 06:56:24;;;;;;;8.57;5.47;;;-0.20;99.90;;;;;;5074484;28;20044;-47
2024/01/17 06:58:50;;;;;;;10.68;5.50;;;-0.20;99.90;;;;;;5074547;28;20055;-48
2024/01/17 07:01:17;;;;;;;10.23;5.90;;;-0.20;99.90;;;;;;5074338;28;20051;-47
2024/01/17 07:03:42;;;;;;;13.38;6.07;;;-0.20;99.90;;;;;;5074962;28;20045;-48
2024/01/17 07:06:08;;;;;;;8.50;5.45;;;-0.20;99.90;;;;;;5073581;28;20122;-47
2024/01/17 07:08:34;;;;;;;11.17;5.97;;;-0.20;99.90;;;;;;5074477;28;20438;-47
2024/01/17 07:11:00;;;;;;;11.65;5.93;;;-0.20;99.90;;;;;;5073142;28;20097;-47
2024/01/17 07:13:26;;;;;;;10.93;5.45;;;-0.30;99.90;;;;;;5074196;28;20048;-47
2024/01/17 07:15:51;;;;;;;11.75;5.63;;;-0.30;99.90;;;;;;5073017;28;20391;-46
2024/01/17 07:18:17;;;;;;;12.70;6.05;;;-0.30;99.90;;;;;;5074025;28;20048;-47
2024/01/17 07:20:42;;;;;;;12.02;5.78;;;-0.30;99.90;;;;;;5073793;28;20437;-46
2024/01/17 07:23:10;;;;;;;10.10;6.03;;;-0.30;99.90;;;;;;5074397;28;20123;-46
2024/01/17 07:25:38;;;;;;;10.02;5.47;;;-0.30;99.90;;;;;;5073927;28;20051;-47
2024/01/17 07:28:05;;;;;;;11.38;5.95;;;-0.40;99.90;;;;;;5073990;28;20052;-47
2024/01/17 07:30:30;;;;;;;10.63;6.25;;;-0.40;99.90;;;;;;5074021;28;20048;-48
2024/01/17 07:32:57;;;;;;;11.32;5.97;;;-0.40;99.90;;;;;;5073925;28;20458;-47
2024/01/17 07:35:22;;;;;;;9.53;5.57;;;-0.40;99.90;;;;;;5073749;28;20132;-47
2024/01/17 07:37:50;;;;;;;9.30;5.57;;;-0.40;99.90;;;;;;5074288;28;20361;-47
2024/01/17 07:40:17;;;;;;;10.10;5.63;;;-0.40;99.90;;;;;;5073515;28;20471;-49
2024/01/17 07:42:43;;;;;;;11.60;5.78;;;-0.40;99.90;;;;;;5073901;28;20487;-47
2024/01/17 07:45:10;;;;;;;10.73;5.93;;;-0.50;99.90;;;;;;5072489;28;20139;-47
2024/01/17 07:47:37;;;;;;;10.95;5.60;;;-0.30;99.90;;;;;;5073754;28;20304;-46
2024/01/17 07:50:03;;;;;;;10.48;5.28;;;-0.50;99.90;;;;;;5073733;28;20044;-47
2024/01/17 07:52:29;;;;;;;10.38;5.60;;;-0.50;99.90;;;;;;5073763;28;20048;-47
2024/01/17 07:54:55;;;;;;;9.90;5.90;;;-0.50;99.90;;;;;;5073708;28;20056;-47
2024/01/17 07:57:20;;;;;;;12.23;6.05;;;-0.50;99.90;;;;;;5073850;28;20052;-47
2024/01/17 07:59:46;;;;;;;9.50;5.45;;;-0.50;99.90;;;;;;5073426;28;20103;-46
2024/01/17 08:02:12;;;;;;;12.32;6.38;;;-0.50;99.90;;;;;;5072650;28;20127;-47
2024/01/17 08:04:38;;;;;;;10.85;5.93;;;-0.50;99.90;;;;;;5073671;28;20132;-47
2024/01/17 08:07:03;;;;;;;9.10;5.25;;;-0.50;99.90;;;;;;5073504;28;20507;-51
2024/01/17 08:09:29;;;;;;;11.75;6.22;;;-0.50;99.90;;;;;;5073529;28;20400;-52
2024/01/17 08:11:56;;;;;;;12.65;6.18;;;-0.50;99.90;;;;;;5073664;28;20089;-52
2024/01/17 08:14:22;;;;;;;;;;;-0.50;99.90;;;;;;5073919;28;20044;-52
2024/01/17 08:16:49;;;;;;;10.27;5.38;;;-0.50;99.90;;;;;;5073424;28;19920;-50
2024/01/17 08:19:15;;;;;;;11.07;5.53;;;-0.50;99.90;;;;;;5075326;28;20045;-48
2024/01/17 08:21:41;;;;;;;8.77;5.32;;;-0.50;99.90;;;;;;5077489;28;20114;-50
2024/01/17 08:24:07;;;;;;;10.70;5.88;;;-0.50;99.90;;;;;;5077676;28;20369;-52
2024/01/17 08:26:33;;;;;;;9.75;5.50;;;-0.50;99.90;;;;;;5077254;28;20090;-47
2024/01/17 08:28:59;;;;;;;9.60;5.40;;;-0.50;99.90;;;;;;5077230;28;20044;-51
2024/01/17 08:31:25;;;;;;;8.85;5.32;;;-0.50;99.90;;;;;;5077122;28;20044;-49
2024/01/17 08:33:51;;;;;;;11.40;5.85;;;-0.50;99.90;;;;;;5077089;28;20052;-49
2024/01/17 08:36:17;;;;;;;9.57;5.72;;;-0.50;99.90;;;;;;5076950;28;20052;-50
2024/01/17 08:38:43;;;;;;;9.13;5.25;;;-0.50;99.90;;;;;;5075892;28;20123;-47
2024/01/17 08:41:08;;;;;;;12.98;5.63;;;-0.60;99.90;;;;;;5077181;28;20091;-47
2024/01/17 08:43:35;;;;;;;11.60;5.97;;;-0.60;99.90;;;;;;5076914;28;20385;-47
2024/01/17 08:46:01;;;;;;;12.15;5.82;;;-0.60;99.90;;;;;;5077031;28;20060;-47
2024/01/17 08:48:27;;;;;;;10.60;5.93;;;-0.60;99.90;;;;;;5076997;28;20044;-46
2024/01/17 08:50:53;;;;;;;11.00;5.40;;;-0.60;99.90;;;;;;5077012;28;20104;-48
2024/01/17 08:53:19;;;;;;;9.25;5.30;;;-0.60;99.90;;;;;;5076929;28;20049;-47
2024/01/17 08:55:45;;;;;;;10.60;5.35;;;-0.60;99.90;;;;;;5076938;28;20407;-47
2024/01/17 08:58:11;;;;;;;10.55;5.78;;;-0.60;99.90;;;;;;5076817;28;20137;-47
2024/01/17 09:00:37;;;;;;;9.63;5.80;;;-0.60;99.90;;;;;;5076635;28;20045;-48
2024/01/17 09:03:04;;;;;;;11.68;5.93;;;-0.60;99.90;;;;;;5077209;28;21048;-47
2024/01/17 09:05:30;;;;;;;8.90;5.22;;;-0.60;99.90;;;;;;5076320;28;20084;-46
2024/01/17 09:07:56;;;;;;;8.13;5.40;;;-0.60;99.90;;;;;;5076625;28;20051;-47
2024/01/17 09:10:23;;;;;;;12.00;5.70;;;-0.50;99.90;;;;;;5076592;28;20087;-47
2024/01/17 09:12:50;;;;;;;12.45;5.85;;;-0.50;99.90;;;;;;5076572;28;20041;-46
2024/01/17 09:15:16;;;;;;;10.63;5.32;;;-0.40;99.90;;;;;;5076457;28;20127;-46
2024/01/17 09:17:42;;;;;;;10.88;5.45;;;-0.50;99.90;;;;;;5076584;28;20091;-46
2024/01/17 09:20:08;;;;;;;10.48;5.22;;;-0.50;99.90;;;;;;5076522;28;20040;-47
2024/01/17 09:22:34;;;;;;;10.90;5.20;;;-0.40;99.90;;;;;;5076321;28;20052;-46
2024/01/17 09:25:02;;;;;;;9.52;5.15;;;-0.50;99.90;;;;;;5076357;28;20089;-48
2024/01/17 09:27:28;;;;;;;8.60;4.95;;;-0.40;99.90;;;;;;5075460;28;20480;-46
2024/01/17 09:29:54;;;;;;;11.75;5.85;;;-0.40;99.90;;;;;;5075459;28;20048;-46
2024/01/17 09:32:20;;;;;;;8.82;5.07;;;-0.40;99.90;;;;;;5076312;28;20048;-46
2024/01/17 09:34:48;;;;;;;8.40;4.57;;;-0.40;99.90;;;;;;5076197;28;20048;-47
2024/01/17 09:37:14;;;;;;;9.32;4.90;;;-0.40;99.90;;;;;;5076050;28;20083;-48
2024/01/17 09:39:40;;;;;;;8.97;4.80;;;-0.40;99.90;;;;;;5075942;28;20044;-47
2024/01/17 09:42:07;;;;;;;10.52;5.22;;;-0.30;99.90;;;;;;5075951;28;20041;-46
2024/01/17 09:44:34;;;;;;;10.52;5.35;;;-0.30;99.90;;;;;;5075847;28;20094;-47
2024/01/17 09:47:01;;;;;;;8.85;5.13;;;-0.30;99.90;;;;;;5075933;28;20056;-47
2024/01/17 09:49:27;;;;;;;10.35;5.65;;;-0.30;99.90;;;;;;5074962;28;20131;-46
2024/01/17 09:51:53;;;;;;;9.30;5.40;;;-0.30;99.90;;;;;;5075777;28;20052;-48
2024/01/17 09:54:24;;;;;;;15.33;5.47;;;-0.30;99.90;;;;;;5075793;28;20051;-46
2024/01/17 09:56:51;;;;;;;8.82;5.35;;;-0.30;99.90;;;;;;5075570;28;20754;-46
2024/01/17 09:59:21;;;;;;;12.20;5.47;;;-0.30;99.90;;;;;;5075400;28;20472;-48
2024/01/17 10:01:47;;;;;;;10.20;4.90;;;-0.30;99.90;;;;;;5075672;28;20110;-47
2024/01/17 10:04:14;;;;;;;9.50;5.20;;;-0.30;99.90;;;;;;5075459;28;20556;-47
2024/01/17 10:06:44;;;;;;;11.32;5.18;;;-0.30;99.90;;;;;;5075582;28;20092;-46
2024/01/17 10:09:10;;;;;;;9.80;5.20;;;-0.30;99.90;;;;;;5075490;28;20127;-46
2024/01/17 10:11:36;;;;;;;9.70;5.10;;;-0.20;99.90;;;;;;5075474;28;20098;-48
2024/01/17 10:14:03;;;;;;;10.48;4.97;;;-0.20;99.90;;;;;;5091099;28;20055;-48
2024/01/17 10:16:28;;;;;;;9.38;5.25;;;-0.20;99.90;;;;;;5075119;28;20530;-47
2024/01/17 10:18:54;;;;;;;10.98;4.40;;;-0.20;99.90;;;;;;5074094;28;20044;-47
2024/01/17 10:21:22;;;;;;;11.17;4.57;;;-0.20;99.90;;;;;;5074988;28;20412;-47
2024/01/17 10:23:48;;;;;;;9.77;5.10;;;-0.20;99.90;;;;;;5075019;28;20283;-47
2024/01/17 10:26:14;;;;;;;8.73;4.93;;;-0.10;99.90;;;;;;5074899;28;20051;-47
2024/01/17 10:28:40;;;;;;;9.13;4.78;;;-0.20;99.90;;;;;;5074875;28;20392;-47
2024/01/17 10:31:06;;;;;;;11.20;5.00;;;-0.10;99.90;;;;;;5073927;28;20052;-47
2024/01/17 10:33:32;;;;;;;9.48;4.40;;;-0.10;99.90;;;;;;5074883;28;20587;-47
2024/01/17 10:35:59;;;;;;;8.73;5.03;;;-0.10;99.90;;;;;;5074939;28;20047;-47
2024/01/17 10:38:31;;;;;;;13.75;4.72;;;-0.10;99.90;;;;;;5074693;28;20044;-47
2024/01/17 10:41:06;;;;;;;9.77;4.68;;;-0.10;99.90;;;;;;5074119;28;20101;-47
2024/01/17 10:43:33;;;;;;;7.13;4.47;;;-0.10;99.90;;;;;;5073793;28;20045;-47
2024/01/17 10:46:09;;;;;;;11.75;4.97;;;-0.10;99.90;;;;;;5074578;28;20475;-49
2024/01/17 10:48:35;;;;;;;9.57;4.57;;;0.00;99.90;;;;;;5074680;28;20488;-50
2024/01/17 10:51:02;;;;;;;9.40;4.55;;;0.00;99.90;;;;;;5073328;28;20139;-51
2024/01/17 10:53:30;;;;;;;8.00;4.35;;;0.00;99.90;;;;;;5074476;28;20513;-50
2024/01/17 10:56:00;;;;;;;9.68;4.53;;;0.00;99.90;;;;;;5074535;28;20090;-49
2024/01/17 10:58:27;;;;;;;9.15;4.30;;;0.00;99.90;;;;;;5074490;28;20045;-51
2024/01/17 11:00:54;;;;;;;7.82;4.30;;;0.00;99.90;;;;;;5073616;28;20059;-50
2024/01/17 11:03:22;;;;;;;8.23;4.32;;;0.10;99.90;;;;;;5074553;28;20127;-48
2024/01/17 11:05:52;;;;;;;10.98;5.63;;;0.10;99.90;;;;;;5074206;28;20395;-50
2024/01/17 11:08:21;;;;;;;9.82;5.00;;;0.20;99.90;;;;;;5074224;28;20067;-49
2024/01/17 11:10:47;;;;;;;8.98;4.10;;;0.10;99.90;;;;;;5074286;28;20052;-51
2024/01/17 11:13:17;;;;;;;8.60;4.40;;;0.10;99.90;;;;;;5074494;28;20040;-46
2024/01/17 11:15:44;;;;;;;7.53;4.20;;;0.10;99.90;;;;;;5073205;28;20083;-50
2024/01/17 11:18:12;;;;;;;11.10;4.25;;;0.10;99.90;;;;;;5074181;28;20121;-47
2024/01/17 11:20:40;;;;;;;10.00;4.60;;;0.10;99.90;;;;;;5073720;28;20377;-49
2024/01/17 11:23:18;;;;;;;10.27;4.72;;;0.00;99.90;;;;;;5073304;28;20051;-50
2024/01/17 11:26:12;;;;;;;12.75;4.63;;;0.00;99.90;;;;;;5074053;28;20476;-48
2024/01/17 11:29:05;;;;;;;10.40;4.28;;;0.00;99.90;;;;;;5072838;28;20044;-46
2024/01/17 11:32:08;;;;;;;9.65;4.57;;;-0.10;99.90;;;;;;5074462;28;20393;-47
2024/01/17 11:34:33;;;;;;;11.07;5.05;;;0.00;99.90;;;;;;5070591;28;20487;-47
2024/01/17 11:36:59;;;;;;;8.50;4.15;;;0.00;99.90;;;;;;5072914;28;20102;-47
2024/01/17 11:39:25;;;;;;;9.75;4.53;;;0.00;99.90;;;;;;5073505;28;20044;-47
2024/01/17 11:41:51;;;;;;;9.43;5.22;;;0.00;99.90;;;;;;5073902;28;20403;-48
2024/01/17 11:44:18;;;;;;;10.82;4.88;;;0.00;99.90;;;;;;5073855;28;20559;-48
2024/01/17 11:46:47;;;;;;;;;;;0.00;99.90;;;;;;5074182;28;20495;-47
2024/01/17 11:49:14;;;;;;;9.73;4.85;;;0.00;99.90;;;;;;5073653;28;19973;-47
2024/01/17 11:51:40;;;;;;;;;;;0.00;99.90;;;;;;5073934;28;20056;-47
2024/01/17 11:54:09;;;;;;;9.48;4.68;;;0.00;99.90;;;;;;5073454;28;19982;-47
2024/01/17 11:56:35;;;;;;;11.68;5.70;;;0.00;99.90;;;;;;5073712;28;20135;-47
2024/01/17 11:59:05;;;;;;;10.98;4.78;;;0.00;99.90;;;;;;5073647;28;20135;-48
2024/01/17 12:01:38;;;;;;;9.65;4.95;;;0.10;99.90;;;;;;5073514;28;20499;-46
2024/01/17 12:04:17;;;;;;;8.77;4.63;;;0.10;99.90;;;;;;5073533;28;20045;-47
2024/01/17 12:06:50;;;;;;;9.75;4.65;;;0.10;99.90;;;;;;5073311;28;20110;-47
2024/01/17 12:09:20;;;;;;;9.50;4.63;;;0.10;99.90;;;;;;5073602;28;20102;-47
2024/01/17 12:11:47;;;;;;;10.00;4.90;;;0.10;99.90;;;;;;5073550;28;20110;-46
2024/01/17 12:14:16;;;;;;;10.93;5.30;;;0.00;99.90;;;;;;5073371;28;20079;-46
2024/01/17 12:16:43;;;;;;;7.50;4.40;;;0.00;99.90;;;;;;5073328;28;20423;-47
2024/01/17 12:19:12;;;;;;;10.07;4.80;;;0.00;99.90;;;;;;5073319;28;20506;-46
2024/01/17 12:21:39;;;;;;;10.90;4.97;;;0.00;99.90;;;;;;5073437;28;20067;-47
2024/01/17 12:24:11;;;;;;;14.02;5.15;;;0.00;99.90;;;;;;5073456;28;20044;-46
2024/01/17 12:26:37;;;;;;;9.63;5.13;;;0.00;99.90;;;;;;5072521;28;20113;-48
2024/01/17 12:29:10;;;;;;;11.07;4.90;;;0.00;99.90;;;;;;5073419;28;20404;-46
2024/01/17 12:31:36;;;;;;;9.73;4.82;;;-0.10;99.90;;;;;;5073372;28;20049;-46
2024/01/17 12:34:02;;;;;;;9.77;4.82;;;0.00;99.90;;;;;;5073830;28;20121;-46
2024/01/17 12:36:30;;;;;;;9.98;5.20;;;0.00;99.90;;;;;;5073358;28;20048;-46
2024/01/17 12:38:56;;;;;;;8.88;4.82;;;0.00;99.90;;;;;;5073428;28;20099;-46
2024/01/17 12:41:22;;;;;;;11.98;5.75;;;0.00;99.90;;;;;;5073187;28;20498;-47
2024/01/17 12:43:49;;;;;;;9.80;5.30;;;0.00;99.90;;;;;;5073113;28;20093;-46
2024/01/17 12:46:15;;;;;;;9.75;4.97;;;0.00;99.90;;;;;;5072952;28;20116;-46
2024/01/17 12:48:58;;;;;;;9.23;5.00;;;0.00;99.90;;;;;;5073235;28;20044;-47